createdAt,value
2019-02-19T00:02:14.924Z,2.70
2019-02-19T00:04:45.846Z,2.70
2019-02-19T00:07:16.570Z,2.70
2019-02-19T00:09:48.090Z,2.70
2019-02-19T00:12:21.776Z,2.60
2019-02-19T00:14:52.213Z,2.70
2019-02-19T00:17:23.007Z,2.70
2019-02-19T00:19:53.652Z,2.70
2019-02-19T00:22:24.892Z,2.70
2019-02-19T00:24:55.599Z,2.70
2019-02-19T00:27:26.334Z,2.70
2019-02-19T00:29:57.010Z,2.70
2019-02-19T00:32:27.720Z,2.80
2019-02-19T00:34:58.469Z,2.80
2019-02-19T00:37:29.230Z,2.70
2019-02-19T00:39:59.998Z,2.70
2019-02-19T00:42:30.827Z,2.80
2019-02-19T00:45:02.136Z,3.00
2019-02-19T00:47:34.131Z,3.20
2019-02-19T00:50:05.659Z,3.20
2019-02-19T00:52:37.061Z,3.30
2019-02-19T00:55:12.549Z,3.50
2019-02-19T00:57:44.658Z,3.60
2019-02-19T01:00:15.876Z,3.80
2019-02-19T01:02:46.554Z,3.90
2019-02-19T01:05:17.309Z,4.10
2019-02-19T01:07:48.817Z,4.10
2019-02-19T01:10:19.482Z,4.20
2019-02-19T01:12:50.676Z,4.20
2019-02-19T01:15:25.412Z,4.10
2019-02-19T01:17:53.725Z,4.30
2019-02-19T01:20:24.634Z,4.20
2019-02-19T01:22:55.495Z,4.20
2019-02-19T01:25:26.240Z,4.20
2019-02-19T01:27:57.000Z,4.20
2019-02-19T01:30:27.663Z,4.40
2019-02-19T01:32:58.311Z,4.40
2019-02-19T01:35:29.256Z,4.30
2019-02-19T01:37:59.934Z,4.20
2019-02-19T01:40:30.610Z,4.30
2019-02-19T01:43:01.335Z,4.20
2019-02-19T01:45:34.087Z,4.20
2019-02-19T01:48:04.406Z,4.20
2019-02-19T01:50:35.111Z,4.20
2019-02-19T01:53:05.792Z,4.10
2019-02-19T01:55:36.496Z,4.00
2019-02-19T01:58:07.177Z,4.00
2019-02-19T02:00:38.274Z,4.00
2019-02-19T02:03:08.902Z,3.90
2019-02-19T02:05:40.332Z,3.80
2019-02-19T02:08:11.165Z,3.80
2019-02-19T02:10:42.249Z,3.80
2019-02-19T02:13:12.942Z,3.90
2019-02-19T02:15:45.492Z,4.00
2019-02-19T02:18:16.183Z,3.90
2019-02-19T02:20:46.887Z,3.90
2019-02-19T02:23:17.622Z,3.90
2019-02-19T02:25:48.303Z,3.80
2019-02-19T02:28:19.112Z,3.80
2019-02-19T02:30:51.902Z,3.70
2019-02-19T02:33:22.586Z,3.60
2019-02-19T02:35:53.269Z,3.80
2019-02-19T02:38:23.975Z,3.80
2019-02-19T02:40:55.157Z,3.80
2019-02-19T02:43:25.934Z,3.80
2019-02-19T02:45:56.639Z,3.70
2019-02-19T02:48:27.341Z,3.70
2019-02-19T02:51:00.003Z,3.80
2019-02-19T02:53:31.061Z,3.80
2019-02-19T02:56:01.697Z,3.70
2019-02-19T02:58:32.436Z,3.70
2019-02-19T03:01:03.223Z,3.70
2019-02-19T03:03:34.221Z,3.70
2019-02-19T03:06:30.196Z,3.70
2019-02-19T03:09:00.975Z,3.60
2019-02-19T03:11:33.718Z,3.70
2019-02-19T03:14:04.399Z,3.60
2019-02-19T03:16:35.263Z,3.60
2019-02-19T03:19:05.928Z,3.60
2019-02-19T03:21:36.589Z,3.60
2019-02-19T03:24:07.261Z,3.60
2019-02-19T03:26:38.130Z,3.70
2019-02-19T03:29:10.185Z,3.70
2019-02-19T03:31:40.938Z,3.60
2019-02-19T03:34:11.568Z,3.60
2019-02-19T03:36:43.685Z,3.60
2019-02-19T03:39:14.419Z,3.50
2019-02-19T03:41:46.515Z,3.60
2019-02-19T03:44:17.212Z,3.50
2019-02-19T03:46:48.534Z,3.40
2019-02-19T03:49:19.300Z,3.40
2019-02-19T03:51:51.192Z,3.40
2019-02-19T03:54:21.839Z,3.40
2019-02-19T03:56:52.691Z,3.30
2019-02-19T03:59:23.507Z,3.30
2019-02-19T04:01:54.317Z,3.30
2019-02-19T04:04:24.984Z,3.30
2019-02-19T04:06:55.840Z,3.40
2019-02-19T04:09:26.525Z,3.50
2019-02-19T04:11:57.203Z,3.40
2019-02-19T04:14:27.914Z,3.40
2019-02-19T04:16:58.521Z,3.40
2019-02-19T04:19:29.205Z,3.40
2019-02-19T04:21:59.854Z,3.40
2019-02-19T04:24:30.524Z,3.40
2019-02-19T04:27:01.186Z,3.40
2019-02-19T04:29:31.842Z,3.50
2019-02-19T04:32:02.587Z,3.40
2019-02-19T04:34:33.354Z,3.40
2019-02-19T04:37:04.574Z,3.40
2019-02-19T04:39:36.853Z,3.40
2019-02-19T04:42:07.475Z,3.50
2019-02-19T04:44:38.325Z,3.50
2019-02-19T04:47:09.427Z,3.50
2019-02-19T04:49:40.499Z,3.50
2019-02-19T04:52:12.349Z,3.50
2019-02-19T04:54:43.996Z,3.40
2019-02-19T04:57:15.044Z,3.40
2019-02-19T04:59:45.709Z,3.50
2019-02-19T05:02:16.463Z,3.50
2019-02-19T05:04:47.223Z,3.40
2019-02-19T05:07:18.070Z,3.30
2019-02-19T05:09:50.407Z,3.20
2019-02-19T05:12:21.106Z,3.10
2019-02-19T05:14:52.692Z,3.00
2019-02-19T05:17:34.781Z,3.00
2019-02-19T05:20:16.648Z,3.00
2019-02-19T05:22:59.492Z,3.00
2019-02-19T05:25:41.596Z,2.90
2019-02-19T05:28:12.458Z,2.90
2019-02-19T05:30:44.139Z,2.80
2019-02-19T05:33:14.837Z,2.80
2019-02-19T05:35:45.705Z,2.70
2019-02-19T05:38:16.980Z,2.70
2019-02-19T05:40:48.343Z,2.70
2019-02-19T05:43:19.022Z,2.80
2019-02-19T05:45:51.739Z,2.70
2019-02-19T05:48:22.829Z,2.60
2019-02-19T05:50:53.512Z,2.70
2019-02-19T05:53:24.159Z,2.70
2019-02-19T05:55:54.841Z,2.80
2019-02-19T05:58:25.968Z,2.80
2019-02-19T06:00:56.683Z,2.70
2019-02-19T06:03:27.370Z,2.80
2019-02-19T06:05:58.029Z,2.80
2019-02-19T06:08:28.707Z,2.90
2019-02-19T06:10:59.397Z,2.80
2019-02-19T06:13:30.005Z,2.80
2019-02-19T06:16:00.687Z,3.00
2019-02-19T06:18:31.352Z,3.00
2019-02-19T06:21:02.025Z,3.00
2019-02-19T06:23:32.635Z,3.10
2019-02-19T06:26:03.310Z,3.00
2019-02-19T06:28:34.009Z,3.00
2019-02-19T06:31:04.631Z,3.00
2019-02-19T06:33:36.242Z,3.00
2019-02-19T06:36:06.901Z,3.10
2019-02-19T06:38:37.866Z,3.10
2019-02-19T06:41:08.542Z,3.10
2019-02-19T06:43:39.275Z,3.10
2019-02-19T06:46:09.911Z,3.20
2019-02-19T06:48:41.789Z,3.30
2019-02-19T06:51:12.423Z,3.30
2019-02-19T06:53:43.123Z,3.40
2019-02-19T06:56:13.754Z,3.50
2019-02-19T06:58:44.458Z,3.60
2019-02-19T07:01:15.598Z,3.70
2019-02-19T07:03:56.337Z,3.90
2019-02-19T07:06:27.011Z,3.90
2019-02-19T07:08:57.677Z,4.00
2019-02-19T07:11:29.302Z,4.00
2019-02-19T07:13:59.942Z,4.10
2019-02-19T07:16:30.611Z,4.20
2019-02-19T07:19:01.282Z,4.20
2019-02-19T07:21:31.981Z,4.20
2019-02-19T07:24:04.705Z,4.20
2019-02-19T07:26:34.988Z,4.20
2019-02-19T07:29:05.644Z,4.20
2019-02-19T07:31:36.516Z,4.20
2019-02-19T07:34:07.193Z,4.20
2019-02-19T07:36:38.636Z,4.20
2019-02-19T07:39:09.522Z,4.20
2019-02-19T07:41:40.163Z,4.30
2019-02-19T07:44:10.834Z,4.30
2019-02-19T07:46:41.584Z,4.30
2019-02-19T07:49:12.256Z,4.30
2019-02-19T07:51:43.751Z,4.30
2019-02-19T07:54:14.419Z,4.40
2019-02-19T07:56:45.235Z,4.40
2019-02-19T07:59:15.864Z,4.50
2019-02-19T08:01:46.573Z,4.60
2019-02-19T08:04:17.212Z,4.60
2019-02-19T08:06:48.364Z,4.70
2019-02-19T08:09:18.986Z,4.80
2019-02-19T08:11:49.630Z,4.90
2019-02-19T08:14:20.301Z,4.90
2019-02-19T08:16:50.962Z,4.90
2019-02-19T08:19:21.620Z,5.00
2019-02-19T08:21:53.522Z,5.10
2019-02-19T08:24:24.205Z,5.20
2019-02-19T08:26:55.573Z,5.30
2019-02-19T08:29:26.386Z,5.40
2019-02-19T08:31:57.526Z,5.50
2019-02-19T08:34:28.177Z,5.70
2019-02-19T08:36:59.075Z,5.80
2019-02-19T08:39:29.762Z,5.80
2019-02-19T08:42:00.422Z,5.90
2019-02-19T08:44:31.066Z,6.00
2019-02-19T08:47:01.721Z,6.10
2019-02-19T08:49:32.333Z,6.10
2019-02-19T08:52:03.014Z,6.20
2019-02-19T08:54:33.629Z,6.30
2019-02-19T08:57:04.282Z,6.40
2019-02-19T08:59:34.933Z,6.40
2019-02-19T09:02:05.584Z,6.40
2019-02-19T09:04:36.262Z,6.50
2019-02-19T09:07:06.941Z,6.60
2019-02-19T09:09:37.894Z,6.80
2019-02-19T09:12:08.521Z,6.90
2019-02-19T09:14:39.151Z,7.00
2019-02-19T09:17:09.799Z,7.10
2019-02-19T09:19:40.469Z,7.20
2019-02-19T09:22:11.093Z,7.40
2019-02-19T09:24:42.921Z,7.60
2019-02-19T09:27:13.542Z,7.70
2019-02-19T09:29:44.194Z,7.90
2019-02-19T09:32:14.842Z,8.10
2019-02-19T09:34:45.558Z,8.20
2019-02-19T09:37:16.237Z,8.30
2019-02-19T09:39:47.086Z,8.30
2019-02-19T09:42:17.794Z,8.50
2019-02-19T09:44:48.421Z,8.60
2019-02-19T09:47:19.175Z,8.70
2019-02-19T09:49:49.873Z,9.00
2019-02-19T09:52:20.575Z,9.10
2019-02-19T09:54:51.859Z,9.20
2019-02-19T09:57:22.545Z,9.30
2019-02-19T09:59:53.181Z,9.30
2019-02-19T10:02:23.874Z,9.30
2019-02-19T10:04:54.506Z,9.50
2019-02-19T10:07:25.186Z,9.70
2019-02-19T10:09:55.853Z,9.60
2019-02-19T10:12:26.620Z,9.60
2019-02-19T10:14:57.263Z,9.70
2019-02-19T10:17:27.937Z,9.70
2019-02-19T10:19:58.614Z,9.90
2019-02-19T10:22:29.256Z,9.90
2019-02-19T10:24:59.942Z,9.90
2019-02-19T10:27:30.621Z,10.00
2019-02-19T10:30:01.420Z,10.00
2019-02-19T10:32:32.046Z,10.00
2019-02-19T10:35:02.794Z,10.00
2019-02-19T10:37:33.477Z,10.20
2019-02-19T10:40:04.320Z,10.00
2019-02-19T10:42:34.982Z,10.10
2019-02-19T10:45:05.693Z,10.30
2019-02-19T10:47:36.406Z,10.30
2019-02-19T10:50:07.753Z,10.30
2019-02-19T10:52:38.411Z,10.30
2019-02-19T10:55:09.146Z,10.30
2019-02-19T10:57:40.743Z,10.30
2019-02-19T11:00:16.614Z,10.40
2019-02-19T11:02:47.424Z,10.30
2019-02-19T11:05:18.119Z,10.30
2019-02-19T11:07:48.810Z,10.30
2019-02-19T11:10:19.443Z,10.30
2019-02-19T11:12:51.533Z,10.40
2019-02-19T11:15:22.345Z,10.30
2019-02-19T11:17:53.102Z,10.30
2019-02-19T11:20:23.844Z,10.20
2019-02-19T11:22:54.697Z,10.20
2019-02-19T11:25:25.389Z,10.00
2019-02-19T11:27:56.575Z,9.80
2019-02-19T11:30:27.275Z,9.80
2019-02-19T11:32:57.956Z,9.80
2019-02-19T11:35:28.612Z,9.90
2019-02-19T11:37:59.269Z,9.90
2019-02-19T11:40:29.942Z,9.90
2019-02-19T11:43:00.602Z,9.90
2019-02-19T11:45:31.291Z,9.90
2019-02-19T11:48:01.972Z,9.80
2019-02-19T11:50:32.683Z,9.70
2019-02-19T11:53:03.321Z,9.80
2019-02-19T11:55:33.993Z,9.70
2019-02-19T11:58:04.662Z,9.60
2019-02-19T12:00:38.501Z,9.60
2019-02-19T12:03:09.155Z,9.80
2019-02-19T12:05:39.811Z,9.80
2019-02-19T12:08:10.462Z,9.90
2019-02-19T12:10:41.479Z,9.70
2019-02-19T12:13:12.149Z,9.60
2019-02-19T12:15:43.412Z,9.60
2019-02-19T12:18:14.136Z,9.70
2019-02-19T12:20:44.824Z,9.70
2019-02-19T12:23:15.696Z,9.70
2019-02-19T12:25:46.439Z,9.80
2019-02-19T12:28:17.374Z,9.80
2019-02-19T12:30:48.670Z,9.70
2019-02-19T12:33:19.664Z,9.80
2019-02-19T12:35:50.349Z,9.70
2019-02-19T12:38:21.957Z,9.70
2019-02-19T12:40:52.646Z,9.80
2019-02-19T12:43:23.338Z,9.90
2019-02-19T12:45:54.243Z,9.80
2019-02-19T12:48:24.930Z,9.80
2019-02-19T12:50:55.761Z,9.90
2019-02-19T12:53:26.479Z,9.80
2019-02-19T12:55:57.183Z,9.90
2019-02-19T12:58:27.913Z,10.00
2019-02-19T13:00:58.756Z,10.00
2019-02-19T13:03:29.449Z,9.80
2019-02-19T13:06:00.205Z,9.80
2019-02-19T13:08:30.941Z,9.90
2019-02-19T13:11:01.625Z,9.90
2019-02-19T13:13:32.265Z,10.00
2019-02-19T13:16:02.977Z,9.90
2019-02-19T13:18:33.654Z,10.00
2019-02-19T13:21:04.328Z,9.90
2019-02-19T13:23:35.084Z,9.90
2019-02-19T13:26:05.699Z,9.80
2019-02-19T13:28:36.395Z,10.00
2019-02-19T13:31:07.098Z,10.10
2019-02-19T13:33:38.566Z,10.10
2019-02-19T13:36:11.180Z,10.20
2019-02-19T13:38:41.924Z,10.30
2019-02-19T13:41:12.820Z,10.20
2019-02-19T13:43:43.925Z,10.00
2019-02-19T13:46:14.602Z,10.10
2019-02-19T13:48:45.369Z,10.10
2019-02-19T13:51:16.071Z,10.20
2019-02-19T13:53:57.078Z,10.40
2019-02-19T13:56:27.871Z,10.50
2019-02-19T13:58:58.619Z,10.50
2019-02-19T14:01:29.533Z,10.40
2019-02-19T14:04:00.212Z,10.50
2019-02-19T14:06:31.023Z,10.20
2019-02-19T14:09:01.737Z,9.90
2019-02-19T14:11:33.209Z,9.80
2019-02-19T14:14:22.986Z,9.80
2019-02-19T14:16:59.920Z,9.70
2019-02-19T14:19:56.488Z,9.80
2019-02-19T14:22:40.771Z,9.80
2019-02-19T14:25:29.285Z,9.90
2019-02-19T14:28:18.892Z,9.90
2019-02-19T14:31:20.706Z,9.90
2019-02-19T14:34:13.527Z,9.90
2019-02-19T14:37:03.595Z,9.90
2019-02-19T14:39:56.058Z,9.80
2019-02-19T14:42:47.281Z,9.80
2019-02-19T14:45:36.848Z,9.70
2019-02-19T14:48:25.552Z,9.70
2019-02-19T14:51:22.669Z,9.70
2019-02-19T14:54:06.291Z,9.60
2019-02-19T14:56:54.917Z,9.60
2019-02-19T14:59:44.651Z,9.60
2019-02-19T15:02:28.340Z,9.70
2019-02-19T15:05:24.069Z,9.60
2019-02-19T15:08:12.255Z,9.60
2019-02-19T15:11:10.945Z,9.60
2019-02-19T15:13:59.450Z,9.60
2019-02-19T15:16:57.980Z,9.60
2019-02-19T15:19:47.199Z,9.70
2019-02-19T15:22:36.732Z,9.60
2019-02-19T15:25:26.194Z,9.60
2019-02-19T15:28:21.829Z,9.60
2019-02-19T15:31:17.638Z,9.50
2019-02-19T15:34:05.889Z,9.40
2019-02-19T15:36:54.513Z,9.20
2019-02-19T15:39:47.317Z,9.20
2019-02-19T15:42:35.619Z,9.20
2019-02-19T15:45:25.391Z,9.20
2019-02-19T15:48:17.783Z,9.20
2019-02-19T15:51:19.722Z,9.20
2019-02-19T15:54:09.242Z,9.10
2019-02-19T15:56:56.208Z,9.10
2019-02-19T15:59:52.177Z,9.00
2019-02-19T16:02:29.179Z,8.90
2019-02-19T16:05:17.547Z,9.00
2019-02-19T16:08:13.128Z,8.90
2019-02-19T16:11:11.545Z,8.90
2019-02-19T16:14:01.097Z,8.90
2019-02-19T16:16:51.091Z,8.80
2019-02-19T16:19:32.535Z,8.80
2019-02-19T16:22:12.644Z,8.80
2019-02-19T16:25:02.586Z,8.70
2019-02-19T16:27:53.054Z,8.80
2019-02-19T16:30:36.092Z,8.80
2019-02-19T16:33:25.814Z,8.70
2019-02-19T16:36:05.637Z,8.60
2019-02-19T16:38:48.546Z,8.50
2019-02-19T16:41:47.759Z,8.60
2019-02-19T16:44:43.157Z,8.60
2019-02-19T16:47:36.014Z,8.60
2019-02-19T16:50:21.777Z,8.60
2019-02-19T16:53:14.288Z,8.60
2019-02-19T16:55:56.176Z,8.60
2019-02-19T16:58:42.264Z,8.70
2019-02-19T17:01:23.098Z,8.60
2019-02-19T17:04:13.503Z,8.60
2019-02-19T17:06:54.778Z,8.60
2019-02-19T17:09:50.570Z,8.60
2019-02-19T17:12:55.236Z,8.60
2019-02-19T17:15:43.399Z,8.50
2019-02-19T17:18:36.403Z,8.50
2019-02-19T17:21:32.414Z,8.50
2019-02-19T17:24:22.388Z,8.50
2019-02-19T17:27:04.299Z,8.50
2019-02-19T17:29:59.793Z,8.50
2019-02-19T17:32:53.132Z,8.60
2019-02-19T17:35:44.065Z,8.60
2019-02-19T17:38:28.538Z,8.50
2019-02-19T17:41:24.764Z,8.50
2019-02-19T17:44:17.505Z,8.50
2019-02-19T17:47:09.867Z,8.50
2019-02-19T17:49:58.854Z,8.60
2019-02-19T17:52:45.661Z,8.50
2019-02-19T17:55:33.989Z,8.50
2019-02-19T17:58:35.627Z,8.50
2019-02-19T18:01:11.097Z,8.50
2019-02-19T18:03:49.566Z,8.40
2019-02-19T18:06:39.653Z,8.40
2019-02-19T18:09:17.979Z,8.30
2019-02-19T18:12:03.110Z,8.30
2019-02-19T18:15:04.971Z,8.30
2019-02-19T18:17:54.672Z,8.20
2019-02-19T18:20:25.402Z,8.20
2019-02-19T18:22:56.105Z,8.20
2019-02-19T18:25:26.922Z,8.30
2019-02-19T18:27:58.428Z,8.30
2019-02-19T18:30:29.624Z,8.30
2019-02-19T18:33:00.284Z,8.30
2019-02-19T18:35:30.989Z,8.30
2019-02-19T18:38:01.676Z,8.20
2019-02-19T18:40:33.918Z,8.30
2019-02-19T18:43:11.341Z,8.20
2019-02-19T18:45:50.880Z,8.20
2019-02-19T18:48:21.799Z,8.30
2019-02-19T18:50:58.087Z,8.30
2019-02-19T18:53:24.948Z,8.30
2019-02-19T18:55:55.629Z,8.30
2019-02-19T18:58:27.308Z,8.30
2019-02-19T19:00:58.514Z,8.30
2019-02-19T19:03:29.164Z,8.30
2019-02-19T19:06:00.326Z,8.30
2019-02-19T19:08:30.969Z,8.20
2019-02-19T19:11:01.636Z,8.20
2019-02-19T19:13:32.269Z,8.10
2019-02-19T19:16:03.992Z,8.10
2019-02-19T19:18:34.623Z,8.10
2019-02-19T19:21:12.849Z,8.20
2019-02-19T19:23:45.774Z,8.20
2019-02-19T19:26:16.381Z,8.30
2019-02-19T19:28:47.525Z,8.30
2019-02-19T19:31:18.350Z,8.30
2019-02-19T19:33:49.122Z,8.20
2019-02-19T19:36:19.809Z,8.30
2019-02-19T19:38:50.466Z,8.30
2019-02-19T19:41:21.231Z,8.20
2019-02-19T19:43:52.062Z,8.20
2019-02-19T19:46:22.739Z,8.30
2019-02-19T19:48:54.818Z,8.40
2019-02-19T19:51:26.496Z,8.30
2019-02-19T19:53:57.293Z,8.30
2019-02-19T19:56:29.019Z,8.20
2019-02-19T19:58:59.677Z,8.30
2019-02-19T20:01:30.552Z,8.20
2019-02-19T20:04:01.311Z,8.30
2019-02-19T20:06:32.003Z,8.30
2019-02-19T20:09:02.684Z,8.30
2019-02-19T20:11:34.462Z,8.30
2019-02-19T20:14:05.165Z,8.30
2019-02-19T20:16:36.551Z,8.30
2019-02-19T20:19:07.375Z,8.30
2019-02-19T20:21:38.590Z,8.30
2019-02-19T20:24:09.241Z,8.30
2019-02-19T20:26:39.962Z,8.30
2019-02-19T20:29:10.609Z,8.20
2019-02-19T20:31:41.375Z,8.20
2019-02-19T20:34:14.131Z,8.30
2019-02-19T20:36:44.964Z,8.20
2019-02-19T20:39:15.603Z,8.10
2019-02-19T20:41:48.430Z,7.90
2019-02-19T20:44:19.061Z,7.90
2019-02-19T20:46:50.306Z,7.80
2019-02-19T20:49:22.979Z,7.60
2019-02-19T20:51:54.951Z,7.50
2019-02-19T20:54:26.597Z,7.30
2019-02-19T20:56:59.518Z,7.20
2019-02-19T20:59:30.208Z,7.10
2019-02-19T21:02:00.956Z,6.80
2019-02-19T21:04:31.616Z,6.60
2019-02-19T21:07:03.714Z,6.70
2019-02-19T21:09:43.195Z,6.60
2019-02-19T21:12:06.994Z,6.60
2019-02-19T21:14:39.298Z,6.50
2019-02-19T21:17:11.759Z,6.50
2019-02-19T21:19:42.571Z,6.40
2019-02-19T21:22:14.457Z,6.60
2019-02-19T21:24:45.645Z,6.50
2019-02-19T21:27:16.322Z,6.50
2019-02-19T21:29:47.066Z,6.40
2019-02-19T21:32:18.348Z,6.30
2019-02-19T21:34:49.312Z,6.20
2019-02-19T21:37:20.029Z,6.10
2019-02-19T21:39:51.919Z,6.10
2019-02-19T21:42:22.641Z,6.10
2019-02-19T21:44:54.234Z,6.00
2019-02-19T21:47:24.912Z,6.00
2019-02-19T21:49:55.598Z,5.90
2019-02-19T21:52:28.024Z,5.90
2019-02-19T21:54:59.699Z,5.90
2019-02-19T21:57:30.312Z,5.90
2019-02-19T22:00:00.950Z,5.90
2019-02-19T22:02:31.764Z,5.80
2019-02-19T22:05:02.513Z,5.80
2019-02-19T22:07:33.855Z,5.90
2019-02-19T22:10:05.280Z,5.90
2019-02-19T22:12:36.451Z,6.00
2019-02-19T22:15:07.833Z,6.00
2019-02-19T22:17:38.636Z,6.00
2019-02-19T22:20:19.450Z,6.00
2019-02-19T22:22:50.312Z,6.10
2019-02-19T22:25:21.054Z,6.10
2019-02-19T22:27:52.866Z,6.10
2019-02-19T22:30:23.533Z,6.10
2019-02-19T22:32:57.197Z,6.10
2019-02-19T22:35:28.359Z,6.10
2019-02-19T22:37:59.217Z,6.10
2019-02-19T22:40:29.871Z,6.10
2019-02-19T22:43:02.534Z,6.10
2019-02-19T22:45:33.825Z,6.10
2019-02-19T22:48:05.386Z,6.20
2019-02-19T22:50:36.040Z,6.20
2019-02-19T22:53:25.783Z,6.10
2019-02-19T22:56:02.776Z,6.00
2019-02-19T22:58:33.760Z,6.10
2019-02-19T23:01:14.199Z,6.10
2019-02-19T23:03:45.096Z,6.10
2019-02-19T23:06:15.707Z,6.20
2019-02-19T23:08:46.449Z,6.20
2019-02-19T23:11:17.171Z,6.10
2019-02-19T23:13:47.792Z,6.10
2019-02-19T23:16:18.435Z,6.00
2019-02-19T23:18:49.094Z,5.90
2019-02-19T23:21:19.744Z,5.90
2019-02-19T23:23:50.377Z,5.80
2019-02-19T23:26:21.054Z,5.80
2019-02-19T23:28:51.693Z,5.80
2019-02-19T23:31:22.592Z,5.80
2019-02-19T23:33:53.958Z,5.80
2019-02-19T23:36:35.608Z,5.80
2019-02-19T23:39:08.408Z,5.80
2019-02-19T23:41:39.123Z,5.80
2019-02-19T23:44:09.818Z,5.80
2019-02-19T23:46:40.584Z,5.80
2019-02-19T23:49:11.342Z,5.80
2019-02-19T23:51:43.425Z,5.80
2019-02-19T23:54:14.096Z,5.80
2019-02-19T23:56:44.730Z,5.90
2019-02-19T23:59:15.391Z,5.90
